Texas General Land Office
 Texas General Land Office
 George P. Bush, Commissioner

 Oil Spill Prevention
 & Response

Texas Automated Buoy System
Real Time Ocean Observations
Supporting Oil Spill Prevention and
Response since 1995
Geochemical and Environmental Research Group

NOAA - NDBC Buoy 42035 -- Texas Automated Buoy System

NBDC Buoy 42035
Galveston
Conditions at 03/21/2019 23:50 UTC (03/21/2019 18:50 CDT)
29° 14.7830'N   94° 24.5000'W
22NM East of Galveston, TX
Anemometer height: 5m
Water Depth: 52 feet (16 meters)
Wind: 5.0 m/s (9.7 kts)
          From 190°T (S)
Wind Gust: 6.00 m/s (11.7 kts) Pressure: 1021.3 mb (30.16 inHg)
Air Temp: 18°C (65 °F) Dewpoint: 8°C (47°F) Relative Humidity: 53%
Sea Surf Temp: 18 °C (64 °F) Wave Height: 0.3m (1.0 ft) Wave Period: 7
  


IMPORTANT: Notice to Mariners


   Date      Time    Speed     Dir   Gust    AtmPr   AirT   DewPt   WaterT  RelH  WvHt  WvPer
          |  (UTC) | (m/s) |  (°T) | (m/s) |  (mb) |  (°C) |  (°C) |  (°C) | (%) | (m) | (s) |
==========+========+=======+=======+=======+=======+=======+=======+=======+=====+=====+=====+
03/21/2019 00:00:00     4.0     200     5.0 1022.10    17.7    12.8    17.4    73 -99.0  -99
03/21/2019 00:10:00     5.0     200     6.0 1022.20    17.6    12.9    17.4    73 -99.0  -99
03/21/2019 00:20:00     5.0     200     6.0 1022.20    17.6    12.6    17.5    72 -99.0  -99
03/21/2019 00:30:00     5.0     200     6.0 1022.40    17.6    12.9    17.4    73 -99.0  -99
03/21/2019 00:40:00     5.0     190     6.0 1022.40    17.6    12.9    17.4    73 -99.0  -99
03/21/2019 00:50:00     5.0     190     6.0 1022.40    17.6    13.2    17.4    75   0.5    8
03/21/2019 01:00:00     5.0     190     6.0 1022.50    17.6    13.1    17.4    74 -99.0  -99
03/21/2019 01:10:00     5.0     190     5.0 1022.60    17.6    13.3    17.3    75 -99.0  -99
03/21/2019 01:20:00     5.0     190     6.0 1022.60    17.6    13.3    17.3    75 -99.0  -99
03/21/2019 01:30:00     5.0     200     5.0 1022.60    17.6    13.3    17.3    75 -99.0  -99
03/21/2019 01:40:00     5.0     200     5.0 1022.70    17.6    13.4    17.3    76 -99.0  -99
03/21/2019 01:50:00     4.0     200     5.0 1022.70    17.6    13.6    17.3    77   0.5    6
03/21/2019 02:00:00     5.0     200     5.0 1022.80    17.6    13.7    17.3    77 -99.0  -99
03/21/2019 02:10:00     4.0     200     5.0 1022.80    17.7    13.7    17.3    77 -99.0  -99
03/21/2019 02:20:00     4.0     200     5.0 1022.70    17.7    14.0    17.3    78 -99.0  -99
03/21/2019 02:30:00     4.0     200     5.0 1022.70    17.7    13.7    17.3    77 -99.0  -99
03/21/2019 02:40:00     4.0     210     5.0 1022.80    17.7    13.8    17.3    77 -99.0  -99
03/21/2019 02:50:00     4.0     210     5.0 1022.90    17.7    13.6    17.3    76   0.5    8
03/21/2019 03:00:00     4.0     220     5.0 1022.90    17.7    13.9    17.3    78 -99.0  -99
03/21/2019 03:10:00     4.0     220     5.0 1023.00    17.7    14.0    17.3    78 -99.0  -99
03/21/2019 03:20:00     4.0     220     5.0 1023.00    17.7    14.1    17.3    79 -99.0  -99
03/21/2019 03:30:00     4.0     230     4.0 1023.10    17.7    14.2    17.3    79 -99.0  -99
03/21/2019 03:40:00     4.0     230     5.0 1023.20    17.7    14.3    17.3    80 -99.0  -99
03/21/2019 03:50:00     4.0     230     5.0 1023.20    17.7    14.2    17.2    79   0.5    6
03/21/2019 04:00:00     3.0     230     4.0 1023.20    17.7    14.7    17.2    82 -99.0  -99
03/21/2019 04:10:00     3.0     230     4.0 1023.20    17.7    14.7    17.2    82 -99.0  -99
03/21/2019 04:20:00     3.0     240     4.0 1023.30    17.7    14.9    17.2    83 -99.0  -99
03/21/2019 04:30:00     4.0     250     4.0 1023.30    17.7    14.9   -99.0    83 -99.0  -99
03/21/2019 04:40:00     3.0     260     4.0 1023.40    17.6    15.5    17.2    87 -99.0  -99
03/21/2019 04:50:00     4.0     270     5.0 1023.20    17.4    15.5    17.2    88   0.5    8
03/21/2019 05:00:00     4.0     270     5.0 1023.40    17.4    15.5    17.2    88 -99.0  -99
03/21/2019 05:10:00     4.0     270     5.0 1023.30    17.4    15.5    17.2    88 -99.0  -99
03/21/2019 05:20:00     4.0     280     4.0 1023.30    17.4    15.4    17.2    88 -99.0  -99
03/21/2019 05:30:00     3.0     280     4.0 1023.40    17.4    15.8    17.2    90 -99.0  -99
03/21/2019 05:40:00     3.0     280     4.0 1023.30    17.3    15.9    17.1    91 -99.0  -99
03/21/2019 05:50:00     4.0     280     5.0 1023.20    17.2    15.6    17.1    90   0.4    7
03/21/2019 06:00:00     4.0     280     5.0 1023.20    17.2    15.7    17.1    90 -99.0  -99
03/21/2019 06:20:00     4.0     280     5.0 1023.20    17.1    15.9    17.1    92 -99.0  -99
03/21/2019 06:30:00     5.0     280     6.0 1023.30    17.2    15.8    17.1    91 -99.0  -99
03/21/2019 06:40:00     5.0     290     6.0 1023.40    17.2    15.9    17.2    92 -99.0  -99
03/21/2019 06:50:00     5.0     300     7.0 1023.30    17.1    15.8    17.2    92   0.4    5
03/21/2019 07:00:00     6.0     300     7.0 1023.40    17.1    15.9    17.2    92 -99.0  -99
03/21/2019 07:10:00     6.0     300     8.0 1023.40    16.8    15.8    17.2    93 -99.0  -99
03/21/2019 07:20:00     6.0     300     7.0 1023.50    16.7    15.4    17.1    92 -99.0  -99
03/21/2019 07:30:00     6.0     290     7.0 1023.50    16.8    15.1    17.1    89 -99.0  -99
03/21/2019 07:40:00     6.0     290     7.0 1023.50    16.8    15.2    17.1    90 -99.0  -99
03/21/2019 07:50:00     6.0     290     7.0 1023.30    16.8    15.4    17.1    91   0.4    8
03/21/2019 08:00:00     7.0     290     8.0 1023.30    16.7    15.2    17.1    90 -99.0  -99
03/21/2019 08:10:00     7.0     300     8.0 1023.20    16.7    15.2    17.1    90 -99.0  -99
03/21/2019 08:20:00     7.0     310     9.0 1023.20    16.8    14.9    17.1    88 -99.0  -99
03/21/2019 08:30:00     8.0     310    10.0 1023.20    16.8    15.3    17.1    90 -99.0  -99
03/21/2019 08:40:00     7.0     320     9.0 1023.10    16.6    15.2    17.1    91 -99.0  -99
03/21/2019 08:50:00     7.0     330     9.0 1023.10    16.6    14.9    17.1    89 -99.0  -99
03/21/2019 09:00:00     7.0     360     8.0 1023.10    16.5    14.0    17.0    85 -99.0  -99
03/21/2019 09:10:00     6.0      10     8.0 1023.10    16.4    13.0    17.0    80 -99.0  -99
03/21/2019 09:20:00     7.0      20     9.0 1023.10    16.4    12.8    17.0    79 -99.0  -99
03/21/2019 09:30:00     8.0      20     9.0 1023.10    16.3    12.1    17.0    76 -99.0  -99
03/21/2019 09:40:00     8.0      20     9.0 1023.10    16.1    11.8    17.0    75 -99.0  -99
03/21/2019 09:50:00     8.0      30     9.0 1023.10    16.0    11.9    17.0    76   0.5    8
03/21/2019 10:00:00     8.0      30     9.0 1023.10    15.9    11.7    17.0    76 -99.0  -99
03/21/2019 10:10:00     7.0      30     9.0 1023.20    15.9    11.4    17.0    74 -99.0  -99
03/21/2019 10:20:00     7.0      30     8.0 1023.20    15.9    11.5    17.0    75 -99.0  -99
03/21/2019 10:30:00     6.0      30     7.0 1023.30    15.9    11.5    17.0    75 -99.0  -99
03/21/2019 10:40:00     6.0      40     7.0 1023.30    15.9    11.8    17.0    76 -99.0  -99
03/21/2019 10:50:00     5.0      40     7.0 1023.40    15.9    12.0    16.9    77   0.5    3
03/21/2019 11:00:00     5.0      30     6.0 1023.60    15.9    11.5    17.0    75 -99.0  -99
03/21/2019 11:10:00     5.0      30     6.0 1023.70    15.9    11.7    17.0    76 -99.0  -99
03/21/2019 11:20:00     6.0      30     7.0 1023.80    15.8    11.3    16.9    74 -99.0  -99
03/21/2019 11:30:00     5.0      40     6.0 1023.90    15.8    11.5    16.9    75 -99.0  -99
03/21/2019 11:40:00     5.0      40     6.0 1024.00    15.8    11.4    16.9    75 -99.0  -99
03/21/2019 11:50:00     5.0      40     6.0 1024.10    15.8    11.1    16.9    73   0.5    3
03/21/2019 12:00:00     5.0      40     6.0 1024.20    15.8    10.8    16.9    72 -99.0  -99
03/21/2019 12:10:00     5.0      40     7.0 1024.20    15.8    11.0    16.9    73 -99.0  -99
03/21/2019 12:20:00     6.0      40     7.0 1024.20    15.8    10.5    16.9    70 -99.0  -99
03/21/2019 12:30:00     6.0      40     6.0 1024.20    15.8    11.0    16.9    73 -99.0  -99
03/21/2019 12:40:00     5.0      40     6.0 1024.30    15.8    11.2    16.9    74 -99.0  -99
03/21/2019 12:50:00     6.0      40     7.0 1024.30    15.8    11.0    16.9    73   0.4    8
03/21/2019 13:00:00     6.0      40     7.0 1024.40    15.7    10.7    16.9    72 -99.0  -99
03/21/2019 13:10:00     5.0      40     6.0 1024.50    15.8    10.9    16.9    72 -99.0  -99
03/21/2019 13:20:00     4.0      40     5.0 1024.60    15.8    11.1    16.9    73 -99.0  -99
03/21/2019 13:30:00     4.0      40     6.0 1024.70    15.8    10.9    16.9    72 -99.0  -99
03/21/2019 13:40:00     4.0      40     5.0 1024.90    15.9    10.6    16.8    70   0.4  -99
03/21/2019 13:50:00     4.0      40     5.0 1024.90    15.9    10.7    16.8    71   0.4    8
03/21/2019 14:00:00     5.0      50     5.0 1025.00    15.9    10.5    16.8    70 -99.0  -99
03/21/2019 14:10:00     4.0      50     5.0 1025.20    15.9    10.6    16.8    70 -99.0  -99
03/21/2019 14:20:00     4.0      50     5.0 1025.30    15.9    10.9    16.9    72 -99.0  -99
03/21/2019 14:30:00     5.0      60     5.0 1025.40    15.9    11.2    16.9    73 -99.0  -99
03/21/2019 14:40:00     4.0      50     5.0 1025.50    15.9    11.2    16.9    73 -99.0  -99
03/21/2019 14:50:00     4.0      60     5.0 1025.50    15.9    10.9    16.9    72   0.4    8
03/21/2019 15:00:00     4.0      60     5.0 1025.50    15.9    10.8    16.9    71 -99.0  -99
03/21/2019 15:10:00     4.0      60     5.0 1025.60    15.9    10.6    17.0    70 -99.0  -99
03/21/2019 15:20:00     3.0      60     4.0 1025.50    15.9    10.8    17.0    71 -99.0  -99
03/21/2019 15:30:00     3.0      60     4.0 1025.50    15.9    10.6    17.0    70 -99.0  -99
03/21/2019 15:40:00     3.0      60     4.0 1025.60    16.0    10.6    17.0    70 -99.0  -99
03/21/2019 15:50:00     4.0      60     4.0 1025.60    16.0    10.2    17.1    68   0.4    8
03/21/2019 16:00:00     4.0      60     4.0 1025.60    16.1    10.2    17.1    68 -99.0  -99
03/21/2019 16:10:00     3.0      70     4.0 1025.60    16.1     9.4    17.2    64 -99.0  -99
03/21/2019 16:20:00     3.0      70     4.0 1025.50    16.1     9.2    17.2    63 -99.0  -99
03/21/2019 16:30:00     3.0      80     3.0 1025.40    16.1     9.4    17.2    64 -99.0  -99
03/21/2019 16:40:00     2.0      90     3.0 1025.40    16.2     9.7    17.2    65 -99.0  -99
03/21/2019 16:50:00     2.0      90     3.0 1025.40    16.3     8.9    17.2    61   0.4    8
03/21/2019 17:00:00     2.0     100     3.0 1025.30    16.3     8.6    17.2    60 -99.0  -99
03/21/2019 17:10:00     2.0      90     2.0 1025.40    16.4     8.8    17.2    60 -99.0  -99
03/21/2019 17:20:00     2.0     100     2.0 1025.30    16.4     8.9    17.3    61 -99.0  -99
03/21/2019 17:30:00     2.0      90     2.0 1025.20    16.5     8.6    17.3    59 -99.0  -99
03/21/2019 17:40:00     1.0     100     2.0 1025.10    16.7     8.8    17.4    59 -99.0  -99
03/21/2019 17:50:00     1.0     110     2.0 1025.00    16.7     8.6    17.5    58   0.3    8
03/21/2019 18:00:00     1.0     110     2.0 1024.90    16.7     8.5    17.5    58 -99.0  -99
03/21/2019 18:10:00     1.0     130     2.0 1024.90    16.9     9.1    17.4    60 -99.0  -99
03/21/2019 18:20:00   -99.0     -99     1.0 1024.80    16.9     8.9    17.5    59 -99.0  -99
03/21/2019 18:30:00     1.0     170     1.0 1024.60    17.1     9.1    17.5    59 -99.0  -99
03/21/2019 18:40:00     1.0     160     2.0 1024.40    17.1     9.3    17.5    60   0.3  -99
03/21/2019 18:50:00     1.0     170     2.0 1024.10    17.0     9.0    17.5    59   0.3    7
03/21/2019 19:00:00     2.0     180     2.0 1023.90    17.0     8.9    17.6    58 -99.0  -99
03/21/2019 19:10:00     2.0     200     3.0 1023.70    17.0     8.8    17.6    58 -99.0  -99
03/21/2019 19:20:00     2.0     190     3.0 1023.60    17.1     8.7    17.5    57 -99.0  -99
03/21/2019 19:30:00     2.0     190     3.0 1023.40    17.0     8.9    17.6    58 -99.0  -99
03/21/2019 19:40:00     2.0     210     3.0 1023.20    17.2     8.1    17.5    55   0.3  -99
03/21/2019 19:50:00     2.0     210     3.0 1023.10    17.2     8.3    17.5    55   0.3    8
03/21/2019 20:00:00     2.0     210     3.0 1023.00    17.3     8.7    17.5    57 -99.0  -99
03/21/2019 20:10:00     2.0     210     4.0 1022.90    17.3     8.3    17.5    55 -99.0  -99
03/21/2019 20:20:00     3.0     210     4.0 1022.70    17.3     8.6    17.6    56 -99.0  -99
03/21/2019 20:30:00     3.0     220     4.0 1022.60    17.4     8.1    17.5    54 -99.0  -99
03/21/2019 20:40:00     3.0     210     4.0 1022.50    17.4     8.8    17.5    57   0.3  -99
03/21/2019 20:50:00     3.0     210     4.0 1022.40    17.4     8.6    17.6    56   0.3    8
03/21/2019 21:00:00     3.0     210     4.0 1022.20    17.4     8.3    17.6    55 -99.0  -99
03/21/2019 21:10:00     3.0     210     4.0 1022.20    17.5     8.6    17.7    55 -99.0  -99
03/21/2019 21:20:00     3.0     200     4.0 1022.00    17.6     8.3    17.8    54 -99.0  -99
03/21/2019 21:30:00     3.0     200     4.0 1022.00    17.6     8.7    17.8    55 -99.0  -99
03/21/2019 21:40:00     3.0     190     4.0 1021.90    17.6     8.5    17.8    55 -99.0  -99
03/21/2019 21:50:00     3.0     180     4.0 1021.60    17.6     9.3    17.8    58   0.3    7
03/21/2019 22:00:00     3.0     170     4.0 1021.60    17.7     8.8    17.8    55 -99.0  -99
03/21/2019 22:10:00     3.0     170     4.0 1021.60    17.7     8.9    17.8    56 -99.0  -99
03/21/2019 22:20:00     3.0     170     4.0 1021.50    17.7     8.8    17.8    55 -99.0  -99
03/21/2019 22:30:00     3.0     170     4.0 1021.40    17.8     9.7    18.0    59 -99.0  -99
03/21/2019 22:40:00     3.0     170     4.0 1021.30    17.8     9.0    18.2    56 -99.0  -99
03/21/2019 22:50:00     4.0     170     4.0 1021.30    17.9     8.7    18.3    54   0.3    8
03/21/2019 23:00:00     4.0     180     4.0 1021.30    17.9     8.6    18.3    54 -99.0  -99
03/21/2019 23:10:00     4.0     170     5.0 1021.20    18.0     8.9    18.4    55 -99.0  -99
03/21/2019 23:20:00     4.0     180     6.0 1021.30    18.1     8.9    18.3    54 -99.0  -99
03/21/2019 23:40:00     5.0     190     6.0 1021.20    18.1     8.5    18.0    53 -99.0  -99
03/21/2019 23:50:00     5.0     190     6.0 1021.30    18.1     8.5    17.9    53   0.3    7